Airfield :
LOGIN :

Register | Disclaimer

   EN    FR    IT 

 










Legend :    VFR   Marginal VFR   IFR   Intensive IFR   Very Intensive IFR
Visi :
Ceiling :
>= 8 km
>= 3000ft
5 to 8 km
1000 to 3000 ft
1500m to 5 km
500 to 1000 ft
800 to 1500m
200 to 500 ft
< 800m
< 200 ft
Symbols :   Thunderstorms  Fog  Heavy snow  Heavy precipitations  Wind > 20 kt
SIGMETs :     Misc.  Thunderstorms  Icing  Turbulence  Mountain Waves  Volcanic Ashes






- Airport Elevation : 313 ft
- IATA code : LEH


LFOH - Le Havre Octeville

CURRENT METAR :
  • 102330Z AUTO 30009KT 7000 -RA BKN005/// BKN009/// OVC024/// ///TCU 09/08 Q1012

EXPIRED METARs :
  • 102300Z AUTO 30013KT 9999 -RA SCT004/// BKN009/// OVC015/// ///TCU 08/08 Q1012
  • 102230Z AUTO 23017KT 190V260 4500 1400 R22/1800D +RA BR OVC009/// ///TCU 10/09 Q1011
  • 102200Z AUTO 21014KT 9999 BKN013 OVC020 10/08 Q1011
  • 102130Z AUTO 20019G29KT 9999 BKN015 OVC022 10/08 Q1011
  • 102100Z AUTO 20019G29KT 9999 BKN018 OVC031 10/07 Q1011

Expired Forecast.
ATIS : +33 2 35 54 64 93



MET'MAP, your aeronautical weather chart ! - Copyright ORBIFLY December 2007 - Disclaimer

ORBIFLY MET'MAP TEAM :

Programming & Development : Alexandra Zaïnal
Concept & original design : Baudouin d'Aumeries
Assistance for programming : Marc-Olivier Méhu
Technical & hardware support : Manuel Goepfert

Contact : metmap@orbifly.com




SOURCES & CREDITS :

   NOAA